sensor_id;sensor_type;location;lat;lon;timestamp;P1;durP1;ratioP1;P2;durP2;ratioP2
7821;SDS011;3956;50.558;9.678;2023-04-24T00:00:40;1.80;;;1.40;;
7821;SDS011;3956;50.558;9.678;2023-04-24T00:03:11;2.43;;;1.50;;
7821;SDS011;3956;50.558;9.678;2023-04-24T00:05:40;3.53;;;1.53;;
7821;SDS011;3956;50.558;9.678;2023-04-24T00:08:10;1.70;;;1.60;;
7821;SDS011;3956;50.558;9.678;2023-04-24T00:10:38;2.80;;;1.73;;
7821;SDS011;3956;50.558;9.678;2023-04-24T00:13:15;2.57;;;1.40;;
7821;SDS011;3956;50.558;9.678;2023-04-24T00:15:45;2.07;;;1.43;;
7821;SDS011;3956;50.558;9.678;2023-04-24T00:18:16;3.90;;;1.40;;
7821;SDS011;3956;50.558;9.678;2023-04-24T00:20:44;2.03;;;1.50;;
7821;SDS011;3956;50.558;9.678;2023-04-24T00:23:15;2.50;;;1.50;;
7821;SDS011;3956;50.558;9.678;2023-04-24T00:25:43;1.83;;;1.40;;
7821;SDS011;3956;50.558;9.678;2023-04-24T00:28:14;3.00;;;1.60;;
7821;SDS011;3956;50.558;9.678;2023-04-24T00:30:43;2.87;;;1.60;;
7821;SDS011;3956;50.558;9.678;2023-04-24T00:33:11;1.80;;;1.50;;
7821;SDS011;3956;50.558;9.678;2023-04-24T00:35:39;2.43;;;1.47;;
7821;SDS011;3956;50.558;9.678;2023-04-24T00:38:07;1.70;;;1.60;;
7821;SDS011;3956;50.558;9.678;2023-04-24T00:40:41;2.20;;;1.60;;
7821;SDS011;3956;50.558;9.678;2023-04-24T00:43:12;3.03;;;1.77;;
7821;SDS011;3956;50.558;9.678;2023-04-24T00:45:43;1.87;;;1.37;;
7821;SDS011;3956;50.558;9.678;2023-04-24T00:48:16;1.87;;;1.60;;
7821;SDS011;3956;50.558;9.678;2023-04-24T00:50:46;1.97;;;1.60;;
7821;SDS011;3956;50.558;9.678;2023-04-24T00:53:14;2.13;;;1.80;;
7821;SDS011;3956;50.558;9.678;2023-04-24T00:55:44;4.30;;;1.97;;
7821;SDS011;3956;50.558;9.678;2023-04-24T00:58:17;2.40;;;1.70;;
7821;SDS011;3956;50.558;9.678;2023-04-24T01:00:47;2.27;;;1.50;;
7821;SDS011;3956;50.558;9.678;2023-04-24T01:03:17;1.93;;;1.70;;
7821;SDS011;3956;50.558;9.678;2023-04-24T01:05:47;1.83;;;1.63;;
7821;SDS011;3956;50.558;9.678;2023-04-24T01:08:18;2.17;;;1.63;;
7821;SDS011;3956;50.558;9.678;2023-04-24T01:10:48;3.90;;;1.60;;
7821;SDS011;3956;50.558;9.678;2023-04-24T01:13:19;1.90;;;1.53;;
7821;SDS011;3956;50.558;9.678;2023-04-24T01:15:49;2.83;;;1.63;;
7821;SDS011;3956;50.558;9.678;2023-04-24T01:18:18;2.80;;;1.83;;
7821;SDS011;3956;50.558;9.678;2023-04-24T01:20:47;2.60;;;1.60;;
7821;SDS011;3956;50.558;9.678;2023-04-24T01:23:19;1.80;;;1.50;;
7821;SDS011;3956;50.558;9.678;2023-04-24T01:25:51;2.33;;;1.53;;
7821;SDS011;3956;50.558;9.678;2023-04-24T01:28:19;1.80;;;1.50;;
7821;SDS011;3956;50.558;9.678;2023-04-24T01:30:49;2.27;;;1.40;;
7821;SDS011;3956;50.558;9.678;2023-04-24T01:33:20;2.90;;;1.57;;
7821;SDS011;3956;50.558;9.678;2023-04-24T01:35:51;2.90;;;1.57;;
7821;SDS011;3956;50.558;9.678;2023-04-24T01:38:22;1.80;;;1.40;;
7821;SDS011;3956;50.558;9.678;2023-04-24T01:40:54;3.30;;;1.67;;
7821;SDS011;3956;50.558;9.678;2023-04-24T01:43:22;1.80;;;1.43;;
7821;SDS011;3956;50.558;9.678;2023-04-24T01:45:52;3.17;;;1.40;;
7821;SDS011;3956;50.558;9.678;2023-04-24T01:48:21;4.90;;;1.50;;
7821;SDS011;3956;50.558;9.678;2023-04-24T01:50:51;2.13;;;1.40;;
7821;SDS011;3956;50.558;9.678;2023-04-24T01:53:23;2.40;;;1.27;;
7821;SDS011;3956;50.558;9.678;2023-04-24T01:55:51;3.73;;;1.60;;
7821;SDS011;3956;50.558;9.678;2023-04-24T01:58:19;3.10;;;1.20;;
7821;SDS011;3956;50.558;9.678;2023-04-24T02:00:48;1.73;;;1.27;;
7821;SDS011;3956;50.558;9.678;2023-04-24T02:03:19;2.87;;;1.40;;
7821;SDS011;3956;50.558;9.678;2023-04-24T02:05:47;1.77;;;1.50;;
7821;SDS011;3956;50.558;9.678;2023-04-24T02:08:15;2.83;;;1.70;;
7821;SDS011;3956;50.558;9.678;2023-04-24T02:10:50;1.90;;;1.20;;
7821;SDS011;3956;50.558;9.678;2023-04-24T02:13:18;3.77;;;1.50;;
7821;SDS011;3956;50.558;9.678;2023-04-24T02:15:51;2.70;;;1.40;;
7821;SDS011;3956;50.558;9.678;2023-04-24T02:18:20;1.97;;;1.50;;
7821;SDS011;3956;50.558;9.678;2023-04-24T02:20:49;2.13;;;1.50;;
7821;SDS011;3956;50.558;9.678;2023-04-24T02:23:20;3.13;;;1.30;;
7821;SDS011;3956;50.558;9.678;2023-04-24T02:25:51;2.50;;;1.20;;
7821;SDS011;3956;50.558;9.678;2023-04-24T02:28:19;6.77;;;1.60;;
7821;SDS011;3956;50.558;9.678;2023-04-24T02:30:47;3.50;;;1.50;;
7821;SDS011;3956;50.558;9.678;2023-04-24T02:33:19;2.93;;;1.50;;
7821;SDS011;3956;50.558;9.678;2023-04-24T02:35:48;3.60;;;1.80;;
7821;SDS011;3956;50.558;9.678;2023-04-24T02:38:17;1.97;;;1.60;;
7821;SDS011;3956;50.558;9.678;2023-04-24T02:40:46;3.23;;;1.70;;
7821;SDS011;3956;50.558;9.678;2023-04-24T02:43:26;2.20;;;1.30;;
7821;SDS011;3956;50.558;9.678;2023-04-24T02:45:58;1.40;;;1.20;;
7821;SDS011;3956;50.558;9.678;2023-04-24T02:48:29;3.60;;;1.40;;
7821;SDS011;3956;50.558;9.678;2023-04-24T02:50:59;1.70;;;1.20;;
7821;SDS011;3956;50.558;9.678;2023-04-24T02:53:30;1.90;;;1.27;;
7821;SDS011;3956;50.558;9.678;2023-04-24T02:55:59;2.33;;;1.53;;
7821;SDS011;3956;50.558;9.678;2023-04-24T02:58:30;3.50;;;1.50;;
7821;SDS011;3956;50.558;9.678;2023-04-24T03:00:59;1.97;;;1.47;;
7821;SDS011;3956;50.558;9.678;2023-04-24T03:03:28;2.53;;;1.30;;
7821;SDS011;3956;50.558;9.678;2023-04-24T03:05:56;2.47;;;1.73;;
7821;SDS011;3956;50.558;9.678;2023-04-24T03:08:27;2.27;;;1.50;;
7821;SDS011;3956;50.558;9.678;2023-04-24T03:10:55;3.27;;;1.40;;
7821;SDS011;3956;50.558;9.678;2023-04-24T03:13:48;2.47;;;1.33;;
7821;SDS011;3956;50.558;9.678;2023-04-24T03:16:35;2.77;;;1.67;;
7821;SDS011;3956;50.558;9.678;2023-04-24T03:19:03;2.67;;;1.30;;
7821;SDS011;3956;50.558;9.678;2023-04-24T03:21:35;5.77;;;1.40;;
7821;SDS011;3956;50.558;9.678;2023-04-24T03:24:14;1.87;;;1.40;;
7821;SDS011;3956;50.558;9.678;2023-04-24T03:26:43;1.83;;;1.40;;
7821;SDS011;3956;50.558;9.678;2023-04-24T03:29:14;1.60;;;1.40;;
7821;SDS011;3956;50.558;9.678;2023-04-24T03:31:44;4.27;;;2.00;;
7821;SDS011;3956;50.558;9.678;2023-04-24T03:34:14;4.23;;;1.40;;
7821;SDS011;3956;50.558;9.678;2023-04-24T03:36:44;3.67;;;1.30;;
7821;SDS011;3956;50.558;9.678;2023-04-24T03:39:27;3.83;;;1.57;;
7821;SDS011;3956;50.558;9.678;2023-04-24T03:42:01;1.83;;;1.30;;
7821;SDS011;3956;50.558;9.678;2023-04-24T03:44:38;3.10;;;1.60;;
7821;SDS011;3956;50.558;9.678;2023-04-24T03:47:09;3.10;;;1.50;;
7821;SDS011;3956;50.558;9.678;2023-04-24T03:49:37;1.70;;;1.23;;
7821;SDS011;3956;50.558;9.678;2023-04-24T03:52:08;2.33;;;1.60;;
7821;SDS011;3956;50.558;9.678;2023-04-24T03:54:36;2.87;;;1.33;;
7821;SDS011;3956;50.558;9.678;2023-04-24T03:57:39;4.77;;;1.70;;
7821;SDS011;3956;50.558;9.678;2023-04-24T04:00:22;3.03;;;1.60;;
7821;SDS011;3956;50.558;9.678;2023-04-24T04:02:53;3.77;;;1.50;;
7821;SDS011;3956;50.558;9.678;2023-04-24T04:05:25;2.23;;;1.20;;
7821;SDS011;3956;50.558;9.678;2023-04-24T04:07:57;2.70;;;1.47;;
7821;SDS011;3956;50.558;9.678;2023-04-24T04:10:27;1.53;;;1.30;;
7821;SDS011;3956;50.558;9.678;2023-04-24T04:12:56;2.33;;;1.27;;
7821;SDS011;3956;50.558;9.678;2023-04-24T04:15:28;1.60;;;1.40;;
7821;SDS011;3956;50.558;9.678;2023-04-24T04:17:58;2.43;;;1.20;;
7821;SDS011;3956;50.558;9.678;2023-04-24T04:20:36;2.57;;;1.30;;
7821;SDS011;3956;50.558;9.678;2023-04-24T04:23:27;6.03;;;1.40;;
7821;SDS011;3956;50.558;9.678;2023-04-24T04:26:27;4.30;;;1.43;;
7821;SDS011;3956;50.558;9.678;2023-04-24T04:28:59;1.60;;;1.10;;
7821;SDS011;3956;50.558;9.678;2023-04-24T04:31:30;2.07;;;1.27;;
7821;SDS011;3956;50.558;9.678;2023-04-24T04:33:58;3.73;;;1.40;;
7821;SDS011;3956;50.558;9.678;2023-04-24T04:36:27;2.67;;;1.60;;
7821;SDS011;3956;50.558;9.678;2023-04-24T04:38:56;3.67;;;1.20;;
7821;SDS011;3956;50.558;9.678;2023-04-24T04:41:25;1.50;;;1.27;;
7821;SDS011;3956;50.558;9.678;2023-04-24T04:44:01;1.77;;;1.10;;
7821;SDS011;3956;50.558;9.678;2023-04-24T04:46:32;1.90;;;1.33;;
7821;SDS011;3956;50.558;9.678;2023-04-24T04:49:01;1.50;;;1.20;;
7821;SDS011;3956;50.558;9.678;2023-04-24T04:51:29;3.13;;;1.50;;
7821;SDS011;3956;50.558;9.678;2023-04-24T04:53:57;2.80;;;1.50;;
7821;SDS011;3956;50.558;9.678;2023-04-24T04:56:25;2.23;;;1.40;;
7821;SDS011;3956;50.558;9.678;2023-04-24T04:58:56;3.40;;;1.77;;
7821;SDS011;3956;50.558;9.678;2023-04-24T05:01:28;2.83;;;1.63;;
7821;SDS011;3956;50.558;9.678;2023-04-24T05:04:19;2.40;;;1.50;;
7821;SDS011;3956;50.558;9.678;2023-04-24T05:06:52;3.03;;;1.80;;
7821;SDS011;3956;50.558;9.678;2023-04-24T05:09:20;2.83;;;1.97;;
7821;SDS011;3956;50.558;9.678;2023-04-24T05:11:56;4.50;;;2.27;;
7821;SDS011;3956;50.558;9.678;2023-04-24T05:14:25;3.57;;;2.00;;
7821;SDS011;3956;50.558;9.678;2023-04-24T05:17:08;4.53;;;1.70;;
7821;SDS011;3956;50.558;9.678;2023-04-24T05:19:47;1.70;;;1.40;;
7821;SDS011;3956;50.558;9.678;2023-04-24T05:22:33;2.90;;;1.40;;
7821;SDS011;3956;50.558;9.678;2023-04-24T05:25:18;1.80;;;1.70;;
7821;SDS011;3956;50.558;9.678;2023-04-24T05:27:47;1.63;;;1.43;;
7821;SDS011;3956;50.558;9.678;2023-04-24T05:30:15;1.70;;;1.43;;
7821;SDS011;3956;50.558;9.678;2023-04-24T05:35:54;2.93;;;1.70;;
7821;SDS011;3956;50.558;9.678;2023-04-24T05:38:24;2.10;;;1.60;;
7821;SDS011;3956;50.558;9.678;2023-04-24T05:41:13;4.57;;;1.60;;
7821;SDS011;3956;50.558;9.678;2023-04-24T05:43:52;2.60;;;1.73;;
7821;SDS011;3956;50.558;9.678;2023-04-24T05:46:24;2.43;;;1.80;;
7821;SDS011;3956;50.558;9.678;2023-04-24T05:49:17;2.77;;;1.70;;
7821;SDS011;3956;50.558;9.678;2023-04-24T05:51:46;1.93;;;1.23;;
7821;SDS011;3956;50.558;9.678;2023-04-24T05:54:22;2.00;;;1.40;;
7821;SDS011;3956;50.558;9.678;2023-04-24T05:57:11;2.40;;;1.40;;
7821;SDS011;3956;50.558;9.678;2023-04-24T05:59:42;2.17;;;1.40;;
7821;SDS011;3956;50.558;9.678;2023-04-24T06:02:19;3.33;;;2.00;;
7821;SDS011;3956;50.558;9.678;2023-04-24T06:04:51;2.37;;;1.60;;
7821;SDS011;3956;50.558;9.678;2023-04-24T06:07:21;3.00;;;1.60;;
7821;SDS011;3956;50.558;9.678;2023-04-24T06:09:50;2.57;;;1.30;;
7821;SDS011;3956;50.558;9.678;2023-04-24T06:12:19;1.47;;;1.30;;
7821;SDS011;3956;50.558;9.678;2023-04-24T06:14:48;1.90;;;1.60;;
7821;SDS011;3956;50.558;9.678;2023-04-24T06:17:19;4.50;;;1.70;;
7821;SDS011;3956;50.558;9.678;2023-04-24T06:19:54;1.90;;;1.40;;
7821;SDS011;3956;50.558;9.678;2023-04-24T06:22:24;2.03;;;1.37;;
7821;SDS011;3956;50.558;9.678;2023-04-24T06:24:54;2.47;;;1.57;;
7821;SDS011;3956;50.558;9.678;2023-04-24T06:27:22;3.57;;;1.60;;
7821;SDS011;3956;50.558;9.678;2023-04-24T06:29:52;3.23;;;1.67;;
7821;SDS011;3956;50.558;9.678;2023-04-24T06:32:21;1.43;;;1.30;;
7821;SDS011;3956;50.558;9.678;2023-04-24T06:35:04;3.20;;;1.50;;
7821;SDS011;3956;50.558;9.678;2023-04-24T06:37:51;3.80;;;1.50;;
7821;SDS011;3956;50.558;9.678;2023-04-24T06:40:54;3.37;;;1.73;;
7821;SDS011;3956;50.558;9.678;2023-04-24T06:43:26;1.67;;;1.30;;
7821;SDS011;3956;50.558;9.678;2023-04-24T06:45:56;2.07;;;1.43;;
7821;SDS011;3956;50.558;9.678;2023-04-24T06:48:26;3.80;;;1.77;;
7821;SDS011;3956;50.558;9.678;2023-04-24T06:50:56;2.50;;;1.50;;
7821;SDS011;3956;50.558;9.678;2023-04-24T06:53:28;2.50;;;1.47;;
7821;SDS011;3956;50.558;9.678;2023-04-24T06:55:59;3.77;;;1.50;;
7821;SDS011;3956;50.558;9.678;2023-04-24T06:58:29;2.47;;;1.70;;
7821;SDS011;3956;50.558;9.678;2023-04-24T07:01:45;2.80;;;1.80;;
7821;SDS011;3956;50.558;9.678;2023-04-24T07:04:15;2.10;;;1.43;;
7821;SDS011;3956;50.558;9.678;2023-04-24T07:10:10;4.57;;;1.70;;
7821;SDS011;3956;50.558;9.678;2023-04-24T07:12:39;2.47;;;1.87;;
7821;SDS011;3956;50.558;9.678;2023-04-24T07:15:09;3.10;;;1.57;;
7821;SDS011;3956;50.558;9.678;2023-04-24T07:17:39;1.40;;;1.30;;
7821;SDS011;3956;50.558;9.678;2023-04-24T07:20:11;3.87;;;1.47;;
7821;SDS011;3956;50.558;9.678;2023-04-24T07:22:42;2.87;;;1.60;;
7821;SDS011;3956;50.558;9.678;2023-04-24T07:25:22;2.87;;;1.60;;
7821;SDS011;3956;50.558;9.678;2023-04-24T07:28:07;2.03;;;1.80;;
7821;SDS011;3956;50.558;9.678;2023-04-24T07:30:36;1.87;;;1.50;;
7821;SDS011;3956;50.558;9.678;2023-04-24T07:33:04;1.93;;;1.50;;
7821;SDS011;3956;50.558;9.678;2023-04-24T07:35:33;2.37;;;1.40;;
7821;SDS011;3956;50.558;9.678;2023-04-24T07:38:06;2.67;;;1.80;;
7821;SDS011;3956;50.558;9.678;2023-04-24T07:41:00;2.07;;;1.50;;
7821;SDS011;3956;50.558;9.678;2023-04-24T07:43:36;1.97;;;1.47;;
7821;SDS011;3956;50.558;9.678;2023-04-24T07:46:20;2.80;;;1.60;;
7821;SDS011;3956;50.558;9.678;2023-04-24T07:48:58;2.57;;;1.70;;
7821;SDS011;3956;50.558;9.678;2023-04-24T07:51:41;2.13;;;1.90;;
7821;SDS011;3956;50.558;9.678;2023-04-24T07:54:09;2.57;;;1.80;;
7821;SDS011;3956;50.558;9.678;2023-04-24T07:56:44;2.77;;;1.90;;
7821;SDS011;3956;50.558;9.678;2023-04-24T07:59:22;2.87;;;2.03;;
7821;SDS011;3956;50.558;9.678;2023-04-24T08:02:00;3.23;;;2.30;;
7821;SDS011;3956;50.558;9.678;2023-04-24T08:04:32;4.43;;;2.57;;
7821;SDS011;3956;50.558;9.678;2023-04-24T08:07:06;3.53;;;2.67;;
7821;SDS011;3956;50.558;9.678;2023-04-24T08:09:46;2.30;;;2.10;;
7821;SDS011;3956;50.558;9.678;2023-04-24T08:12:17;3.67;;;2.57;;
7821;SDS011;3956;50.558;9.678;2023-04-24T08:14:47;4.70;;;2.70;;
7821;SDS011;3956;50.558;9.678;2023-04-24T08:17:16;3.60;;;2.90;;
7821;SDS011;3956;50.558;9.678;2023-04-24T08:19:44;3.37;;;2.97;;
7821;SDS011;3956;50.558;9.678;2023-04-24T08:22:15;3.07;;;2.60;;
7821;SDS011;3956;50.558;9.678;2023-04-24T08:24:46;3.97;;;3.20;;
7821;SDS011;3956;50.558;9.678;2023-04-24T08:27:37;4.10;;;2.80;;
7821;SDS011;3956;50.558;9.678;2023-04-24T08:30:30;4.03;;;3.20;;
7821;SDS011;3956;50.558;9.678;2023-04-24T08:33:25;3.77;;;3.20;;
7821;SDS011;3956;50.558;9.678;2023-04-24T08:35:56;4.90;;;3.40;;
7821;SDS011;3956;50.558;9.678;2023-04-24T08:38:27;3.30;;;3.00;;
7821;SDS011;3956;50.558;9.678;2023-04-24T08:41:05;8.60;;;5.17;;
7821;SDS011;3956;50.558;9.678;2023-04-24T08:43:47;3.73;;;3.13;;
7821;SDS011;3956;50.558;9.678;2023-04-24T08:46:19;5.97;;;2.97;;
7821;SDS011;3956;50.558;9.678;2023-04-24T08:48:50;5.47;;;3.60;;
7821;SDS011;3956;50.558;9.678;2023-04-24T08:51:25;3.77;;;3.07;;
7821;SDS011;3956;50.558;9.678;2023-04-24T08:53:57;3.23;;;2.93;;
7821;SDS011;3956;50.558;9.678;2023-04-24T08:56:27;4.30;;;3.03;;
7821;SDS011;3956;50.558;9.678;2023-04-24T08:59:10;5.87;;;3.10;;
7821;SDS011;3956;50.558;9.678;2023-04-24T09:02:08;2.93;;;2.63;;
7821;SDS011;3956;50.558;9.678;2023-04-24T09:04:39;3.87;;;2.40;;
7821;SDS011;3956;50.558;9.678;2023-04-24T09:07:09;2.17;;;1.90;;
7821;SDS011;3956;50.558;9.678;2023-04-24T09:09:45;3.03;;;2.40;;
7821;SDS011;3956;50.558;9.678;2023-04-24T09:12:21;3.07;;;2.00;;
7821;SDS011;3956;50.558;9.678;2023-04-24T09:14:57;6.13;;;2.13;;
7821;SDS011;3956;50.558;9.678;2023-04-24T09:17:27;6.87;;;2.20;;
7821;SDS011;3956;50.558;9.678;2023-04-24T09:19:57;2.87;;;2.40;;
7821;SDS011;3956;50.558;9.678;2023-04-24T09:22:29;2.57;;;1.90;;
7821;SDS011;3956;50.558;9.678;2023-04-24T09:25:02;3.23;;;2.03;;
7821;SDS011;3956;50.558;9.678;2023-04-24T09:27:41;3.23;;;2.23;;
7821;SDS011;3956;50.558;9.678;2023-04-24T09:30:21;2.70;;;2.00;;
7821;SDS011;3956;50.558;9.678;2023-04-24T09:32:57;2.60;;;2.20;;
7821;SDS011;3956;50.558;9.678;2023-04-24T09:36:05;2.57;;;2.20;;
7821;SDS011;3956;50.558;9.678;2023-04-24T09:38:38;3.17;;;2.50;;
7821;SDS011;3956;50.558;9.678;2023-04-24T09:41:19;3.40;;;2.70;;
7821;SDS011;3956;50.558;9.678;2023-04-24T09:44:34;5.23;;;2.33;;
7821;SDS011;3956;50.558;9.678;2023-04-24T09:47:06;3.40;;;2.27;;
7821;SDS011;3956;50.558;9.678;2023-04-24T09:49:37;3.60;;;2.20;;
7821;SDS011;3956;50.558;9.678;2023-04-24T09:52:09;3.60;;;2.37;;
7821;SDS011;3956;50.558;9.678;2023-04-24T09:54:43;2.60;;;2.20;;
7821;SDS011;3956;50.558;9.678;2023-04-24T09:57:21;4.47;;;2.27;;
7821;SDS011;3956;50.558;9.678;2023-04-24T09:59:57;3.90;;;2.30;;
7821;SDS011;3956;50.558;9.678;2023-04-24T10:02:30;3.23;;;2.37;;
7821;SDS011;3956;50.558;9.678;2023-04-24T10:05:04;3.73;;;2.50;;
7821;SDS011;3956;50.558;9.678;2023-04-24T10:07:38;5.07;;;2.87;;
7821;SDS011;3956;50.558;9.678;2023-04-24T10:10:11;4.57;;;2.80;;
7821;SDS011;3956;50.558;9.678;2023-04-24T10:12:53;3.43;;;2.40;;
7821;SDS011;3956;50.558;9.678;2023-04-24T10:15:22;3.87;;;2.87;;
7821;SDS011;3956;50.558;9.678;2023-04-24T10:17:52;3.60;;;2.60;;
7821;SDS011;3956;50.558;9.678;2023-04-24T10:20:29;3.77;;;2.87;;
7821;SDS011;3956;50.558;9.678;2023-04-24T10:22:58;4.47;;;2.37;;
7821;SDS011;3956;50.558;9.678;2023-04-24T10:25:30;4.87;;;2.67;;
7821;SDS011;3956;50.558;9.678;2023-04-24T10:28:02;4.30;;;3.10;;
7821;SDS011;3956;50.558;9.678;2023-04-24T10:30:35;2.80;;;2.30;;
7821;SDS011;3956;50.558;9.678;2023-04-24T10:33:11;2.70;;;2.47;;
7821;SDS011;3956;50.558;9.678;2023-04-24T10:35:42;4.10;;;2.60;;
7821;SDS011;3956;50.558;9.678;2023-04-24T10:38:18;7.20;;;2.47;;
7821;SDS011;3956;50.558;9.678;2023-04-24T10:40:58;3.03;;;2.23;;
7821;SDS011;3956;50.558;9.678;2023-04-24T10:44:07;3.90;;;2.30;;
7821;SDS011;3956;50.558;9.678;2023-04-24T10:46:39;4.40;;;2.90;;
7821;SDS011;3956;50.558;9.678;2023-04-24T10:49:31;3.37;;;2.57;;
7821;SDS011;3956;50.558;9.678;2023-04-24T10:52:04;2.77;;;2.33;;
7821;SDS011;3956;50.558;9.678;2023-04-24T10:54:42;2.50;;;2.20;;
7821;SDS011;3956;50.558;9.678;2023-04-24T11:02:48;2.97;;;2.50;;
7821;SDS011;3956;50.558;9.678;2023-04-24T11:08:25;3.30;;;2.00;;
7821;SDS011;3956;50.558;9.678;2023-04-24T11:11:32;3.47;;;2.23;;
7821;SDS011;3956;50.558;9.678;2023-04-24T11:15:02;3.17;;;2.20;;
7821;SDS011;3956;50.558;9.678;2023-04-24T11:18:03;2.63;;;1.90;;
7821;SDS011;3956;50.558;9.678;2023-04-24T11:20:51;2.07;;;1.87;;
7821;SDS011;3956;50.558;9.678;2023-04-24T11:23:45;4.17;;;2.97;;
7821;SDS011;3956;50.558;9.678;2023-04-24T11:26:21;3.33;;;2.40;;
7821;SDS011;3956;50.558;9.678;2023-04-24T11:28:51;2.00;;;1.80;;
7821;SDS011;3956;50.558;9.678;2023-04-24T11:31:41;5.10;;;2.47;;
7821;SDS011;3956;50.558;9.678;2023-04-24T11:34:15;2.47;;;2.10;;
7821;SDS011;3956;50.558;9.678;2023-04-24T11:36:53;2.50;;;2.30;;
7821;SDS011;3956;50.558;9.678;2023-04-24T11:40:04;2.90;;;2.10;;
7821;SDS011;3956;50.558;9.678;2023-04-24T11:42:38;3.23;;;2.37;;
7821;SDS011;3956;50.558;9.678;2023-04-24T11:45:09;4.57;;;3.03;;
7821;SDS011;3956;50.558;9.678;2023-04-24T11:48:06;5.77;;;2.83;;
7821;SDS011;3956;50.558;9.678;2023-04-24T11:50:34;2.73;;;2.50;;
7821;SDS011;3956;50.558;9.678;2023-04-24T11:53:09;4.20;;;2.70;;
7821;SDS011;3956;50.558;9.678;2023-04-24T11:55:38;2.40;;;2.10;;
7821;SDS011;3956;50.558;9.678;2023-04-24T11:58:06;3.10;;;2.00;;
7821;SDS011;3956;50.558;9.678;2023-04-24T12:00:40;2.77;;;2.00;;
7821;SDS011;3956;50.558;9.678;2023-04-24T12:03:10;2.97;;;1.73;;
7821;SDS011;3956;50.558;9.678;2023-04-24T12:05:39;1.50;;;1.40;;
7821;SDS011;3956;50.558;9.678;2023-04-24T12:08:20;1.70;;;1.37;;
7821;SDS011;3956;50.558;9.678;2023-04-24T12:11:14;3.10;;;1.20;;
7821;SDS011;3956;50.558;9.678;2023-04-24T12:13:48;1.57;;;1.20;;
7821;SDS011;3956;50.558;9.678;2023-04-24T12:16:16;1.70;;;1.40;;
7821;SDS011;3956;50.558;9.678;2023-04-24T12:18:45;2.47;;;1.60;;
7821;SDS011;3956;50.558;9.678;2023-04-24T12:21:21;1.93;;;1.70;;
7821;SDS011;3956;50.558;9.678;2023-04-24T12:23:54;2.60;;;1.30;;
7821;SDS011;3956;50.558;9.678;2023-04-24T12:26:30;2.40;;;1.70;;
7821;SDS011;3956;50.558;9.678;2023-04-24T12:29:01;1.53;;;1.40;;
7821;SDS011;3956;50.558;9.678;2023-04-24T12:31:31;1.50;;;1.30;;
7821;SDS011;3956;50.558;9.678;2023-04-24T12:34:01;2.60;;;1.20;;
7821;SDS011;3956;50.558;9.678;2023-04-24T12:36:31;1.40;;;1.20;;
7821;SDS011;3956;50.558;9.678;2023-04-24T12:39:15;3.10;;;1.47;;
7821;SDS011;3956;50.558;9.678;2023-04-24T12:41:58;1.53;;;1.10;;
7821;SDS011;3956;50.558;9.678;2023-04-24T12:44:32;1.97;;;1.40;;
7821;SDS011;3956;50.558;9.678;2023-04-24T12:47:22;1.63;;;1.10;;
7821;SDS011;3956;50.558;9.678;2023-04-24T12:49:55;1.23;;;1.10;;
7821;SDS011;3956;50.558;9.678;2023-04-24T12:52:31;1.10;;;1.00;;
7821;SDS011;3956;50.558;9.678;2023-04-24T12:55:01;1.73;;;1.00;;
7821;SDS011;3956;50.558;9.678;2023-04-24T12:57:41;1.73;;;1.10;;
7821;SDS011;3956;50.558;9.678;2023-04-24T13:03:07;1.03;;;0.90;;
7821;SDS011;3956;50.558;9.678;2023-04-24T13:05:36;1.53;;;1.00;;
7821;SDS011;3956;50.558;9.678;2023-04-24T13:08:06;1.20;;;0.90;;
7821;SDS011;3956;50.558;9.678;2023-04-24T13:10:34;1.13;;;0.90;;
7821;SDS011;3956;50.558;9.678;2023-04-24T13:13:16;1.00;;;0.80;;
7821;SDS011;3956;50.558;9.678;2023-04-24T13:15:57;0.80;;;0.80;;
7821;SDS011;3956;50.558;9.678;2023-04-24T13:18:31;0.80;;;0.80;;
7821;SDS011;3956;50.558;9.678;2023-04-24T13:21:28;2.80;;;1.00;;
7821;SDS011;3956;50.558;9.678;2023-04-24T13:24:23;2.30;;;1.60;;
7821;SDS011;3956;50.558;9.678;2023-04-24T13:26:54;1.30;;;1.00;;
7821;SDS011;3956;50.558;9.678;2023-04-24T13:29:35;3.67;;;1.10;;
7821;SDS011;3956;50.558;9.678;2023-04-24T13:32:05;1.03;;;0.90;;
7821;SDS011;3956;50.558;9.678;2023-04-24T13:35:15;1.70;;;1.00;;
7821;SDS011;3956;50.558;9.678;2023-04-24T13:37:52;1.00;;;0.80;;
7821;SDS011;3956;50.558;9.678;2023-04-24T13:40:25;1.33;;;0.93;;
7821;SDS011;3956;50.558;9.678;2023-04-24T13:43:49;2.70;;;0.87;;
7821;SDS011;3956;50.558;9.678;2023-04-24T13:46:30;1.43;;;0.90;;
7821;SDS011;3956;50.558;9.678;2023-04-24T13:49:13;1.10;;;0.90;;
7821;SDS011;3956;50.558;9.678;2023-04-24T13:51:45;1.13;;;0.90;;
7821;SDS011;3956;50.558;9.678;2023-04-24T13:54:30;1.97;;;1.23;;
7821;SDS011;3956;50.558;9.678;2023-04-24T13:57:10;2.03;;;1.20;;
7821;SDS011;3956;50.558;9.678;2023-04-24T13:59:43;2.50;;;1.00;;
7821;SDS011;3956;50.558;9.678;2023-04-24T14:02:49;1.40;;;1.10;;
7821;SDS011;3956;50.558;9.678;2023-04-24T14:05:19;1.33;;;1.00;;
7821;SDS011;3956;50.558;9.678;2023-04-24T14:07:49;1.80;;;1.03;;
7821;SDS011;3956;50.558;9.678;2023-04-24T14:10:19;1.20;;;1.10;;
7821;SDS011;3956;50.558;9.678;2023-04-24T14:12:55;3.67;;;1.20;;
7821;SDS011;3956;50.558;9.678;2023-04-24T14:15:29;1.00;;;0.90;;
7821;SDS011;3956;50.558;9.678;2023-04-24T14:17:59;1.40;;;1.30;;
7821;SDS011;3956;50.558;9.678;2023-04-24T14:20:30;1.40;;;1.30;;
7821;SDS011;3956;50.558;9.678;2023-04-24T14:23:03;1.87;;;1.50;;
7821;SDS011;3956;50.558;9.678;2023-04-24T14:25:33;1.83;;;1.53;;
7821;SDS011;3956;50.558;9.678;2023-04-24T14:28:01;1.97;;;1.43;;
7821;SDS011;3956;50.558;9.678;2023-04-24T14:30:31;2.13;;;1.70;;
7821;SDS011;3956;50.558;9.678;2023-04-24T14:33:10;2.67;;;1.63;;
7821;SDS011;3956;50.558;9.678;2023-04-24T14:35:42;2.63;;;1.93;;
7821;SDS011;3956;50.558;9.678;2023-04-24T14:38:16;2.47;;;1.73;;
7821;SDS011;3956;50.558;9.678;2023-04-24T14:40:44;3.30;;;2.10;;
7821;SDS011;3956;50.558;9.678;2023-04-24T14:43:15;2.90;;;1.50;;
7821;SDS011;3956;50.558;9.678;2023-04-24T14:45:43;1.97;;;1.47;;
7821;SDS011;3956;50.558;9.678;2023-04-24T14:48:13;2.37;;;1.70;;
7821;SDS011;3956;50.558;9.678;2023-04-24T14:50:43;3.57;;;2.07;;
7821;SDS011;3956;50.558;9.678;2023-04-24T14:53:12;2.50;;;1.97;;
7821;SDS011;3956;50.558;9.678;2023-04-24T14:55:40;2.50;;;1.83;;
7821;SDS011;3956;50.558;9.678;2023-04-24T14:58:08;2.80;;;1.87;;
7821;SDS011;3956;50.558;9.678;2023-04-24T15:00:36;3.80;;;2.00;;
7821;SDS011;3956;50.558;9.678;2023-04-24T15:03:04;3.03;;;2.10;;
7821;SDS011;3956;50.558;9.678;2023-04-24T15:05:35;4.10;;;2.10;;
7821;SDS011;3956;50.558;9.678;2023-04-24T15:08:04;2.60;;;1.60;;
7821;SDS011;3956;50.558;9.678;2023-04-24T15:10:32;10.83;;;4.60;;
7821;SDS011;3956;50.558;9.678;2023-04-24T15:13:01;4.10;;;2.60;;
7821;SDS011;3956;50.558;9.678;2023-04-24T15:15:39;4.33;;;2.57;;
7821;SDS011;3956;50.558;9.678;2023-04-24T15:18:20;3.80;;;2.53;;
7821;SDS011;3956;50.558;9.678;2023-04-24T15:20:59;2.93;;;2.10;;
7821;SDS011;3956;50.558;9.678;2023-04-24T15:23:41;3.07;;;2.00;;
7821;SDS011;3956;50.558;9.678;2023-04-24T15:26:34;3.70;;;2.30;;
7821;SDS011;3956;50.558;9.678;2023-04-24T15:29:27;3.43;;;2.30;;
7821;SDS011;3956;50.558;9.678;2023-04-24T15:31:57;4.40;;;2.20;;
7821;SDS011;3956;50.558;9.678;2023-04-24T15:34:38;3.10;;;1.93;;
7821;SDS011;3956;50.558;9.678;2023-04-24T15:43:43;6.60;;;3.30;;
7821;SDS011;3956;50.558;9.678;2023-04-24T15:46:13;3.60;;;2.40;;
7821;SDS011;3956;50.558;9.678;2023-04-24T15:48:49;3.43;;;2.13;;
7821;SDS011;3956;50.558;9.678;2023-04-24T15:51:34;2.30;;;1.90;;
7821;SDS011;3956;50.558;9.678;2023-04-24T15:54:03;3.60;;;2.20;;
7821;SDS011;3956;50.558;9.678;2023-04-24T15:56:34;3.17;;;2.30;;
7821;SDS011;3956;50.558;9.678;2023-04-24T15:59:04;4.13;;;1.97;;
7821;SDS011;3956;50.558;9.678;2023-04-24T16:01:36;3.77;;;2.57;;
7821;SDS011;3956;50.558;9.678;2023-04-24T16:04:14;4.27;;;2.40;;
7821;SDS011;3956;50.558;9.678;2023-04-24T16:06:42;3.58;;;2.50;;
7821;SDS011;3956;50.558;9.678;2023-04-24T16:09:13;4.67;;;2.70;;
7821;SDS011;3956;50.558;9.678;2023-04-24T16:11:45;6.40;;;3.60;;
7821;SDS011;3956;50.558;9.678;2023-04-24T16:14:44;2.90;;;2.30;;
7821;SDS011;3956;50.558;9.678;2023-04-24T16:17:12;7.47;;;2.73;;
7821;SDS011;3956;50.558;9.678;2023-04-24T16:19:44;3.17;;;2.30;;
7821;SDS011;3956;50.558;9.678;2023-04-24T16:22:28;4.03;;;2.50;;
7821;SDS011;3956;50.558;9.678;2023-04-24T16:24:57;4.57;;;2.67;;
7821;SDS011;3956;50.558;9.678;2023-04-24T16:27:25;4.43;;;2.60;;